Agia Marina — SX5375 — position and weather

sailwx.info

Track history (hours):
 
Tides and Currents Weather Stations Pressure Air Temp Water Temp Dewpoint Dewpoint Depression Visibility Wind Speed Wind Dir Waves Ship Positions

Agia Marina

Last reported at 2018-Apr-27 01:00 UTC. Time now 2018-Apr-27 01:11 UTC.
Position N 37°45' E 023°43'.

Length 59 m; draft 2.5 m.

Type: Ship. MMSI: 237042500.

Date/timePositionNaut miles runAvg speedWind from/ knotsBaromVisibWave heightAir tempDewpointWater temp
2018-Apr-27 01:00N 37°45' E 023°43'3 5.3
2018-Apr-27 00:30N 37°42' E 023°45'3 5.6
2018-Apr-27 00:00N 37°40' E 023°47'  
2018-Apr-24 17:25N 39°35' E 024°37'3 6.2
2018-Apr-24 16:59N 39°34' E 024°34'16 6.4
2018-Apr-24 14:28N 39°28' E 024°14'31 6.5
2018-Apr-24 09:40N 39°07' E 023°44'0 0.6
2018-Apr-24 09:28N 39°07' E 023°44'0 0.0
2018-Apr-24 09:00N 39°07' E 023°44'0 0.0
2018-Apr-24 08:07N 39°07' E 023°44'0 0.0
2018-Apr-24 07:59N 39°07' E 023°44'0 0.0
2018-Apr-24 06:53N 39°07' E 023°44'0 0.0
2018-Apr-24 06:00N 39°07' E 023°44'0 0.0
2018-Apr-24 04:52N 39°07' E 023°44'0 0.0
2018-Apr-24 04:25N 39°07' E 023°44'0 0.0
2018-Apr-23 20:12N 39°07' E 023°44'0 0.0
2018-Apr-23 19:19N 39°07' E 023°44'  
2018-Apr-19 08:17N 37°38' E 023°44'2 6.3
2018-Apr-19 08:00N 37°38' E 023°41'3 6.5
2018-Apr-19 07:30N 37°39' E 023°37'3 6.7
2018-Apr-19 07:00N 37°39' E 023°33'4 6.8
2018-Apr-19 06:23N 37°40' E 023°28'3 6.9
2018-Apr-19 05:59N 37°43' E 023°26'2 3.2
2018-Apr-19 05:18N 37°45' E 023°26'0 0.0
2018-Apr-19 04:48N 37°45' E 023°26'0 0.0
2018-Apr-19 04:30N 37°45' E 023°26'0 0.0
2018-Apr-19 04:00N 37°45' E 023°26'0 0.0
2018-Apr-19 03:30N 37°45' E 023°26'0 0.0
2018-Apr-19 03:00N 37°45' E 023°26'0 0.0
2018-Apr-19 02:30N 37°45' E 023°26'0 0.0
2018-Apr-19 02:00N 37°45' E 023°26'0 0.0
2018-Apr-19 01:30N 37°45' E 023°26'0 0.0
2018-Apr-19 01:00N 37°45' E 023°26'0 0.0
2018-Apr-19 00:30N 37°45' E 023°26'0 0.0
2018-Apr-19 00:00N 37°45' E 023°26'0 0.0
2018-Apr-18 23:30N 37°45' E 023°26'0 0.0
2018-Apr-18 23:00N 37°45' E 023°26'0 0.0
2018-Apr-18 22:30N 37°45' E 023°26'0 0.0
2018-Apr-18 22:00N 37°45' E 023°26'0 0.0
2018-Apr-18 21:30N 37°45' E 023°26'0 0.0
2018-Apr-18 21:00N 37°45' E 023°26'0 0.0
2018-Apr-18 20:30N 37°45' E 023°26'0 0.0
2018-Apr-18 20:00N 37°45' E 023°26'0 0.0
2018-Apr-18 19:30N 37°45' E 023°26'0 0.0
2018-Apr-18 19:00N 37°45' E 023°26'0 0.0
2018-Apr-18 18:30N 37°45' E 023°26'0 0.0
2018-Apr-18 18:00N 37°45' E 023°26'2 3.4
2018-Apr-18 17:30N 37°46' E 023°26'3 6.8
2018-Apr-18 17:00N 37°49' E 023°29'3 6.8
2018-Apr-18 16:30N 37°51' E 023°32'3 6.7
2018-Apr-18 16:00N 37°54' E 023°34'3 6.0
2018-Apr-18 15:30N 37°57' E 023°34'3 5.6
2018-Apr-18 15:00N 37°60' E 023°33'3 6.2
2018-Apr-18 14:30N 38°02' E 023°36'0 0.2
2018-Apr-18 14:00N 38°02' E 023°36'0 0.0
2018-Apr-18 13:30N 38°02' E 023°36'0 0.0
2018-Apr-18 13:00N 38°02' E 023°36'0 0.0
2018-Apr-18 12:30N 38°02' E 023°36'0 0.0
2018-Apr-18 12:00N 38°02' E 023°36'0 0.0
2018-Apr-18 11:30N 38°02' E 023°36'0 0.0
2018-Apr-18 11:00N 38°02' E 023°36'0 0.0
2018-Apr-18 10:30N 38°02' E 023°36'0 0.0
2018-Apr-18 10:00N 38°02' E 023°36'0 0.0
2018-Apr-18 09:30N 38°02' E 023°36'0 0.0
2018-Apr-18 09:00N 38°02' E 023°36'0 0.0
2018-Apr-18 08:30N 38°02' E 023°36'0 0.0
2018-Apr-18 08:00N 38°02' E 023°36'0 0.0
2018-Apr-18 07:30N 38°02' E 023°36'0 0.0
2018-Apr-18 07:00N 38°02' E 023°36'0 0.0
2018-Apr-18 06:30N 38°02' E 023°36'0 0.0
2018-Apr-18 06:00N 38°02' E 023°36'0 0.0
2018-Apr-18 05:30N 38°02' E 023°36'0 0.0
2018-Apr-18 05:00N 38°02' E 023°36'0 0.0
2018-Apr-18 04:30N 38°02' E 023°36'0 0.0
2018-Apr-18 04:00N 38°02' E 023°36'0 0.0
2018-Apr-18 03:30N 38°02' E 023°36'0 0.0
2018-Apr-18 03:00N 38°02' E 023°36'0 0.0
2018-Apr-18 02:30N 38°02' E 023°36'0 0.0
2018-Apr-18 02:00N 38°02' E 023°36'0 0.0
2018-Apr-18 01:30N 38°02' E 023°36'0 0.0
2018-Apr-18 01:00N 38°02' E 023°36'0 0.0
2018-Apr-18 00:29N 38°02' E 023°36'0 0.0
2018-Apr-18 00:00N 38°02' E 023°36'0 0.0
2018-Apr-17 23:30N 38°02' E 023°36'0 0.0
2018-Apr-17 23:00N 38°02' E 023°36'0 0.0
2018-Apr-17 22:30N 38°02' E 023°36'0 0.0
2018-Apr-17 22:00N 38°02' E 023°36'0 0.0
2018-Apr-17 21:30N 38°02' E 023°36'0 0.0
2018-Apr-17 21:00N 38°02' E 023°36'0 0.0
2018-Apr-17 20:30N 38°02' E 023°36'0 0.0
2018-Apr-17 20:00N 38°02' E 023°36'0 0.0
2018-Apr-17 19:30N 38°02' E 023°36'0 0.0
2018-Apr-17 19:00N 38°02' E 023°36'0 0.0
2018-Apr-17 18:30N 38°02' E 023°36'0 0.0
2018-Apr-17 18:00N 38°02' E 023°36'0 0.0
2018-Apr-17 17:30N 38°02' E 023°36'0 0.0
2018-Apr-17 17:00N 38°02' E 023°36'0 0.0
2018-Apr-17 16:30N 38°02' E 023°36'0 0.0
2018-Apr-17 16:00N 38°02' E 023°36'0 0.0
2018-Apr-17 15:30N 38°02' E 023°36'0 0.0
2018-Apr-17 15:00N 38°02' E 023°36'0 0.0
2018-Apr-17 14:30N 38°02' E 023°36'0 0.0
2018-Apr-17 14:00N 38°02' E 023°36'0 0.0
2018-Apr-17 13:30N 38°02' E 023°36'0 0.0
2018-Apr-17 13:00N 38°02' E 023°36'0 0.0
2018-Apr-17 12:30N 38°02' E 023°36'0 0.0
2018-Apr-17 12:00N 38°02' E 023°36'0 0.0
2018-Apr-17 11:29N 38°02' E 023°36'0 0.0
2018-Apr-17 11:00N 38°02' E 023°36'0 0.0
2018-Apr-17 10:30N 38°02' E 023°36'0 0.0
2018-Apr-17 10:00N 38°02' E 023°36'0 0.0
2018-Apr-17 09:30N 38°02' E 023°36'0 0.0
2018-Apr-17 09:00N 38°02' E 023°36'0 0.0
2018-Apr-17 08:30N 38°02' E 023°36'0 0.0
2018-Apr-17 08:00N 38°02' E 023°36'0 0.0
2018-Apr-17 07:30N 38°02' E 023°36'0 0.0
2018-Apr-17 07:00N 38°02' E 023°36'0 0.0
2018-Apr-17 06:30N 38°02' E 023°36'0 0.0
2018-Apr-17 06:00N 38°02' E 023°36'0 0.0
2018-Apr-17 05:30N 38°02' E 023°36'0 0.0
2018-Apr-17 05:00N 38°02' E 023°36'0 0.0
2018-Apr-17 04:30N 38°02' E 023°36'0 0.0
2018-Apr-17 04:00N 38°02' E 023°36'0 0.0
2018-Apr-17 03:30N 38°02' E 023°36'0 0.0
2018-Apr-17 03:00N 38°02' E 023°36'0 0.0
2018-Apr-17 02:30N 38°02' E 023°36'0 0.0
2018-Apr-17 02:00N 38°02' E 023°36'0 0.0
2018-Apr-17 01:30N 38°02' E 023°36'  
Track history (hours):
 
Tides and Currents Weather Stations Pressure Air Temp Water Temp Dewpoint Dewpoint Depression Visibility Wind Speed Wind Dir Waves Ship Positions

Agia Marina

Last reported at 2018-Apr-27 01:00 UTC. Time now 2018-Apr-27 01:11 UTC.
Position N 37°45' E 023°43'.

Length 59 m; draft 2.5 m.

Type: Ship. MMSI: 237042500.

Date/timePositionNaut miles runAvg speedWind from/ knotsBaromVisibWave heightAir tempDewpointWater temp
2018-Apr-27 01:00N 37°45' E 023°43'3 5.3
2018-Apr-27 00:30N 37°42' E 023°45'3 5.6
2018-Apr-27 00:00N 37°40' E 023°47'  
2018-Apr-24 17:25N 39°35' E 024°37'3 6.2
2018-Apr-24 16:59N 39°34' E 024°34'16 6.4
2018-Apr-24 14:28N 39°28' E 024°14'31 6.5
2018-Apr-24 09:40N 39°07' E 023°44'0 0.6
2018-Apr-24 09:28N 39°07' E 023°44'0 0.0
2018-Apr-24 09:00N 39°07' E 023°44'0 0.0
2018-Apr-24 08:07N 39°07' E 023°44'0 0.0
2018-Apr-24 07:59N 39°07' E 023°44'0 0.0
2018-Apr-24 06:53N 39°07' E 023°44'0 0.0
2018-Apr-24 06:00N 39°07' E 023°44'0 0.0
2018-Apr-24 04:52N 39°07' E 023°44'0 0.0
2018-Apr-24 04:25N 39°07' E 023°44'0 0.0
2018-Apr-23 20:12N 39°07' E 023°44'0 0.0
2018-Apr-23 19:19N 39°07' E 023°44'  
2018-Apr-19 08:17N 37°38' E 023°44'2 6.3
2018-Apr-19 08:00N 37°38' E 023°41'3 6.5
2018-Apr-19 07:30N 37°39' E 023°37'3 6.7
2018-Apr-19 07:00N 37°39' E 023°33'4 6.8
2018-Apr-19 06:23N 37°40' E 023°28'3 6.9
2018-Apr-19 05:59N 37°43' E 023°26'2 3.2
2018-Apr-19 05:18N 37°45' E 023°26'0 0.0
2018-Apr-19 04:48N 37°45' E 023°26'0 0.0
2018-Apr-19 04:30N 37°45' E 023°26'0 0.0
2018-Apr-19 04:00N 37°45' E 023°26'0 0.0
2018-Apr-19 03:30N 37°45' E 023°26'0 0.0
2018-Apr-19 03:00N 37°45' E 023°26'0 0.0
2018-Apr-19 02:30N 37°45' E 023°26'0 0.0
2018-Apr-19 02:00N 37°45' E 023°26'0 0.0
2018-Apr-19 01:30N 37°45' E 023°26'0 0.0
2018-Apr-19 01:00N 37°45' E 023°26'0 0.0
2018-Apr-19 00:30N 37°45' E 023°26'0 0.0
2018-Apr-19 00:00N 37°45' E 023°26'0 0.0
2018-Apr-18 23:30N 37°45' E 023°26'0 0.0
2018-Apr-18 23:00N 37°45' E 023°26'0 0.0
2018-Apr-18 22:30N 37°45' E 023°26'0 0.0
2018-Apr-18 22:00N 37°45' E 023°26'0 0.0
2018-Apr-18 21:30N 37°45' E 023°26'0 0.0
2018-Apr-18 21:00N 37°45' E 023°26'0 0.0
2018-Apr-18 20:30N 37°45' E 023°26'0 0.0
2018-Apr-18 20:00N 37°45' E 023°26'0 0.0
2018-Apr-18 19:30N 37°45' E 023°26'0 0.0
2018-Apr-18 19:00N 37°45' E 023°26'0 0.0
2018-Apr-18 18:30N 37°45' E 023°26'0 0.0
2018-Apr-18 18:00N 37°45' E 023°26'2 3.4
2018-Apr-18 17:30N 37°46' E 023°26'3 6.8
2018-Apr-18 17:00N 37°49' E 023°29'3 6.8
2018-Apr-18 16:30N 37°51' E 023°32'3 6.7
2018-Apr-18 16:00N 37°54' E 023°34'3 6.0
2018-Apr-18 15:30N 37°57' E 023°34'3 5.6
2018-Apr-18 15:00N 37°60' E 023°33'3 6.2
2018-Apr-18 14:30N 38°02' E 023°36'0 0.2
2018-Apr-18 14:00N 38°02' E 023°36'0 0.0
2018-Apr-18 13:30N 38°02' E 023°36'0 0.0
2018-Apr-18 13:00N 38°02' E 023°36'0 0.0
2018-Apr-18 12:30N 38°02' E 023°36'0 0.0
2018-Apr-18 12:00N 38°02' E 023°36'0 0.0
2018-Apr-18 11:30N 38°02' E 023°36'0 0.0
2018-Apr-18 11:00N 38°02' E 023°36'0 0.0
2018-Apr-18 10:30N 38°02' E 023°36'0 0.0
2018-Apr-18 10:00N 38°02' E 023°36'0 0.0
2018-Apr-18 09:30N 38°02' E 023°36'0 0.0
2018-Apr-18 09:00N 38°02' E 023°36'0 0.0
2018-Apr-18 08:30N 38°02' E 023°36'0 0.0
2018-Apr-18 08:00N 38°02' E 023°36'0 0.0
2018-Apr-18 07:30N 38°02' E 023°36'0 0.0
2018-Apr-18 07:00N 38°02' E 023°36'0 0.0
2018-Apr-18 06:30N 38°02' E 023°36'0 0.0
2018-Apr-18 06:00N 38°02' E 023°36'0 0.0
2018-Apr-18 05:30N 38°02' E 023°36'0 0.0
2018-Apr-18 05:00N 38°02' E 023°36'0 0.0
2018-Apr-18 04:30N 38°02' E 023°36'0 0.0
2018-Apr-18 04:00N 38°02' E 023°36'0 0.0
2018-Apr-18 03:30N 38°02' E 023°36'0 0.0
2018-Apr-18 03:00N 38°02' E 023°36'0 0.0
2018-Apr-18 02:30N 38°02' E 023°36'0 0.0
2018-Apr-18 02:00N 38°02' E 023°36'0 0.0
2018-Apr-18 01:30N 38°02' E 023°36'0 0.0
2018-Apr-18 01:00N 38°02' E 023°36'0 0.0
2018-Apr-18 00:29N 38°02' E 023°36'0 0.0
2018-Apr-18 00:00N 38°02' E 023°36'0 0.0
2018-Apr-17 23:30N 38°02' E 023°36'0 0.0
2018-Apr-17 23:00N 38°02' E 023°36'0 0.0
2018-Apr-17 22:30N 38°02' E 023°36'0 0.0
2018-Apr-17 22:00N 38°02' E 023°36'0 0.0
2018-Apr-17 21:30N 38°02' E 023°36'0 0.0
2018-Apr-17 21:00N 38°02' E 023°36'0 0.0
2018-Apr-17 20:30N 38°02' E 023°36'0 0.0
2018-Apr-17 20:00N 38°02' E 023°36'0 0.0
2018-Apr-17 19:30N 38°02' E 023°36'0 0.0
2018-Apr-17 19:00N 38°02' E 023°36'0 0.0
2018-Apr-17 18:30N 38°02' E 023°36'0 0.0
2018-Apr-17 18:00N 38°02' E 023°36'0 0.0
2018-Apr-17 17:30N 38°02' E 023°36'0 0.0
2018-Apr-17 17:00N 38°02' E 023°36'0 0.0
2018-Apr-17 16:30N 38°02' E 023°36'0 0.0
2018-Apr-17 16:00N 38°02' E 023°36'0 0.0
2018-Apr-17 15:30N 38°02' E 023°36'0 0.0
2018-Apr-17 15:00N 38°02' E 023°36'0 0.0
2018-Apr-17 14:30N 38°02' E 023°36'0 0.0
2018-Apr-17 14:00N 38°02' E 023°36'0 0.0
2018-Apr-17 13:30N 38°02' E 023°36'0 0.0
2018-Apr-17 13:00N 38°02' E 023°36'0 0.0
2018-Apr-17 12:30N 38°02' E 023°36'0 0.0
2018-Apr-17 12:00N 38°02' E 023°36'0 0.0
2018-Apr-17 11:29N 38°02' E 023°36'0 0.0
2018-Apr-17 11:00N 38°02' E 023°36'0 0.0
2018-Apr-17 10:30N 38°02' E 023°36'0 0.0
2018-Apr-17 10:00N 38°02' E 023°36'0 0.0
2018-Apr-17 09:30N 38°02' E 023°36'0 0.0
2018-Apr-17 09:00N 38°02' E 023°36'0 0.0
2018-Apr-17 08:30N 38°02' E 023°36'0 0.0
2018-Apr-17 08:00N 38°02' E 023°36'0 0.0
2018-Apr-17 07:30N 38°02' E 023°36'0 0.0
2018-Apr-17 07:00N 38°02' E 023°36'0 0.0
2018-Apr-17 06:30N 38°02' E 023°36'0 0.0
2018-Apr-17 06:00N 38°02' E 023°36'0 0.0
2018-Apr-17 05:30N 38°02' E 023°36'0 0.0
2018-Apr-17 05:00N 38°02' E 023°36'0 0.0
2018-Apr-17 04:30N 38°02' E 023°36'0 0.0
2018-Apr-17 04:00N 38°02' E 023°36'0 0.0
2018-Apr-17 03:30N 38°02' E 023°36'0 0.0
2018-Apr-17 03:00N 38°02' E 023°36'0 0.0
2018-Apr-17 02:30N 38°02' E 023°36'0 0.0
2018-Apr-17 02:00N 38°02' E 023°36'0 0.0
2018-Apr-17 01:30N 38°02' E 023°36'  

Dump ship's entire track history